Time;durP1;ratioP1;P1;durP2;ratioP2;P2;SDS_P1;SDS_P2;PMS_P1;PMS_P2;Temp;Humidity;BMP_temperature;BMP_pressure;BME280_temperature;BME280_humidity;BME280_pressure;Samples;Min_cycle;Max_cycle;Signal;HPM_P1;HPM_P2
2023/12/31 00:00:37;;;;;;;4.50;2.60;;;;;;;-0.41;88.52;95859.13;110544;1274;22186;-76
2023/12/31 00:03:25;;;;;;;36.90;17.00;;;;;;;-0.34;88.33;95858.80;110509;1274;22912;-76
2023/12/31 00:05:53;;;;;;;44.40;21.20;;;;;;;-0.32;88.48;95859.20;110606;1274;22139;-76
2023/12/31 00:08:22;;;;;;;55.50;25.90;;;;;;;-0.29;88.50;95857.58;110559;1274;22144;-76
2023/12/31 00:10:50;;;;;;;69.40;32.60;;;;;;;-0.28;88.20;95862.61;110527;1274;22166;-76
2023/12/31 00:13:18;;;;;;;99.00;46.30;;;;;;;-0.33;87.56;95862.65;110579;1274;22133;-76
2023/12/31 00:15:46;;;;;;;67.60;30.20;;;;;;;-0.29;88.01;95862.06;110091;1274;574189;-76
2023/12/31 00:18:14;;;;;;;8.70;5.20;;;;;;;-0.28;87.72;95866.94;110530;1274;22131;-76
2023/12/31 00:20:43;;;;;;;2.50;1.50;;;;;;;-0.33;87.33;95865.58;110509;1274;22099;-76
2023/12/31 00:23:12;;;;;;;2.60;1.10;;;;;;;-0.29;88.03;95864.13;110578;1274;22999;-76
2023/12/31 00:25:40;;;;;;;130.90;57.80;;;;;;;-0.27;88.02;95861.77;110544;1274;22777;-76
2023/12/31 00:28:08;;;;;;;161.80;66.90;;;;;;;-0.33;87.69;95860.55;110522;1274;22305;-76
2023/12/31 00:30:37;;;;;;;146.80;63.10;;;;;;;-0.36;87.67;95863.76;110598;1274;22297;-76
2023/12/31 00:33:05;;;;;;;140.70;63.30;;;;;;;-0.34;87.93;95864.34;110592;1274;22185;-76
2023/12/31 00:35:34;;;;;;;121.60;55.80;;;;;;;-0.38;87.31;95863.70;110524;1274;22240;-76
2023/12/31 00:38:02;;;;;;;104.30;49.20;;;;;;;-0.45;87.01;95865.60;110540;1274;23153;-76
2023/12/31 00:40:31;;;;;;;97.50;44.80;;;;;;;-0.55;86.79;95867.58;110522;1274;22120;-76
2023/12/31 00:42:59;;;;;;;56.00;26.90;;;;;;;-0.56;87.47;95866.48;110522;1274;22848;-76
2023/12/31 00:45:27;;;;;;;59.80;27.00;;;;;;;-0.60;87.20;95866.19;110540;1274;22769;-76
2023/12/31 00:47:55;;;;;;;25.90;14.00;;;;;;;-0.68;87.04;95869.94;110621;1274;22132;-76
2023/12/31 00:50:24;;;;;;;12.60;6.00;;;;;;;-0.71;87.27;95869.16;110496;1274;22143;-75
2023/12/31 00:52:52;;;;;;;13.00;6.80;;;;;;;-0.73;87.45;95868.42;110596;1274;22336;-76
2023/12/31 00:55:20;;;;;;;8.90;4.20;;;;;;;-0.75;87.67;95869.58;110542;1274;22221;-76
2023/12/31 00:57:48;;;;;;;5.00;2.80;;;;;;;-0.75;87.72;95868.88;110557;1274;23049;-76
2023/12/31 01:00:16;;;;;;;3.80;2.00;;;;;;;-0.75;87.95;95867.15;110504;1274;22115;-76
2023/12/31 01:02:45;;;;;;;3.30;1.40;;;;;;;-0.74;87.92;95868.55;110455;1274;23012;-76
2023/12/31 01:05:13;;;;;;;17.40;7.70;;;;;;;-0.73;87.76;95871.35;110531;1274;22172;-76
2023/12/31 01:07:41;;;;;;;31.80;14.40;;;;;;;-0.78;87.80;95870.17;110542;1274;22856;-76
2023/12/31 01:10:10;;;;;;;28.20;13.30;;;;;;;-0.83;87.79;95866.90;110553;1274;22361;-75
2023/12/31 01:12:38;;;;;;;36.30;17.20;;;;;;;-0.91;87.63;95861.16;110509;1274;22118;-76
2023/12/31 01:15:09;;;;;;;54.50;25.60;;;;;;;-0.97;87.75;95861.51;110535;1274;22980;-76
2023/12/31 01:17:37;;;;;;;74.90;32.30;;;;;;;-1.06;87.32;95858.10;110520;1274;22116;-76
2023/12/31 01:20:08;;;;;;;89.50;38.30;;;;;;;-1.19;87.42;95865.35;110493;1274;22186;-76
2023/12/31 01:22:36;;;;;;;85.30;37.30;;;;;;;-1.25;87.54;95859.78;110616;1274;22198;-76
2023/12/31 01:25:05;;;;;;;36.20;16.00;;;;;;;-1.28;87.77;95863.67;110548;1274;22899;-76
2023/12/31 01:27:33;;;;;;;21.30;9.40;;;;;;;-1.28;87.81;95864.16;110577;1274;22167;-76
2023/12/31 01:30:03;;;;;;;49.80;22.30;;;;;;;-1.28;88.20;95863.82;110565;1274;22150;-76
2023/12/31 01:32:31;;;;;;;72.70;33.70;;;;;;;-1.29;88.73;95867.94;110583;1274;22113;-76
2023/12/31 01:35:03;;;;;;;65.10;30.60;;;;;;;-1.27;88.53;95870.08;110547;1262;22109;-76
2023/12/31 01:37:31;;;;;;;2.10;1.30;;;;;;;-1.23;88.37;95872.09;110606;1274;22198;-76
2023/12/31 01:39:59;;;;;;;53.60;26.10;;;;;;;-1.16;89.19;95863.85;110531;1274;22125;-76
2023/12/31 01:42:27;;;;;;;57.30;28.50;;;;;;;-1.15;88.94;95860.28;110608;1274;22939;-76
2023/12/31 01:44:57;;;;;;;118.20;54.00;;;;;;;-1.13;88.68;95858.94;110549;1274;22208;-76
2023/12/31 01:47:25;;;;;;;131.50;57.60;;;;;;;-1.15;88.70;95863.88;110519;1274;22136;-76
2023/12/31 01:49:54;;;;;;;99.90;46.20;;;;;;;-1.18;88.56;95862.95;110637;1274;22155;-76
2023/12/31 01:52:24;;;;;;;21.40;11.70;;;;;;;-1.19;88.41;95860.66;110528;1274;22084;-76
2023/12/31 01:54:54;;;;;;;5.10;3.20;;;;;;;-1.17;88.70;95860.20;110496;1274;22216;-77
2023/12/31 01:57:28;;;;;;;4.80;2.10;;;;;;;-1.08;89.20;95863.40;110554;1274;22979;-77
2023/12/31 01:59:59;;;;;;;1.40;1.10;;;;;;;-0.99;89.36;95855.91;110560;1274;22132;-77
2023/12/31 02:02:27;;;;;;;2.70;1.50;;;;;;;-0.95;89.22;95855.67;110622;1274;22094;-77
2023/12/31 02:04:56;;;;;;;6.70;4.10;;;;;;;-0.92;89.24;95854.23;110599;1274;22153;-76
2023/12/31 02:07:25;;;;;;;72.20;34.30;;;;;;;-0.94;88.89;95857.44;110496;1274;22283;-76
2023/12/31 02:09:53;;;;;;;53.40;26.50;;;;;;;-0.95;89.00;95853.62;110514;1274;22787;-77
2023/12/31 02:12:22;;;;;;;30.30;16.00;;;;;;;-0.94;88.66;95850.88;110547;1274;22131;-76
2023/12/31 02:14:51;;;;;;;16.50;8.40;;;;;;;-0.96;88.59;95851.67;110510;1274;22119;-76
2023/12/31 02:17:19;;;;;;;10.00;6.00;;;;;;;-0.92;88.80;95851.45;110526;1274;22151;-77
2023/12/31 02:19:47;;;;;;;8.10;4.00;;;;;;;-0.85;88.97;95852.52;110569;1274;22218;-76
2023/12/31 02:22:16;;;;;;;2.70;1.70;;;;;;;-0.78;88.97;95850.30;110550;1274;22246;-77
2023/12/31 02:24:48;;;;;;;8.80;4.20;;;;;;;-0.76;88.90;95850.00;110521;1274;22189;-77
2023/12/31 02:27:17;;;;;;;46.00;25.20;;;;;;;-0.83;87.95;95854.29;110551;1274;22225;-76
2023/12/31 02:29:45;;;;;;;44.00;22.10;;;;;;;-0.94;87.57;95853.64;110607;1274;22958;-77
2023/12/31 02:32:13;;;;;;;45.40;22.90;;;;;;;-1.01;87.47;95854.99;110508;1274;22129;-76
2023/12/31 02:34:45;;;;;;;80.70;41.60;;;;;;;-1.14;87.10;95849.41;110602;1263;22205;-76
2023/12/31 02:37:14;;;;;;;111.80;53.90;;;;;;;-1.23;87.34;95852.94;110513;1274;22162;-76
2023/12/31 02:39:42;;;;;;;56.80;30.10;;;;;;;-1.29;87.61;95857.25;110561;1273;22125;-77
2023/12/31 02:42:10;;;;;;;18.70;9.60;;;;;;;-1.30;88.07;95853.92;110544;1274;22136;-76
2023/12/31 02:44:39;;;;;;;13.20;7.70;;;;;;;-1.32;88.21;95853.70;110513;1274;22095;-77
2023/12/31 02:47:11;;;;;;;29.20;15.70;;;;;;;-1.39;88.30;95853.64;110516;1274;22223;-76
2023/12/31 02:49:39;;;;;;;12.90;6.80;;;;;;;-1.45;88.15;95855.00;110520;1274;22289;-76
2023/12/31 02:52:09;;;;;;;30.40;15.80;;;;;;;-1.47;88.26;95857.71;110596;1274;22173;-76
2023/12/31 02:54:38;;;;;;;43.70;23.70;;;;;;;-1.51;88.53;95857.60;110575;1274;22158;-76
2023/12/31 02:57:09;;;;;;;47.80;24.90;;;;;;;-1.57;88.43;95857.92;110534;1274;22180;-76
2023/12/31 02:59:37;;;;;;;51.00;26.70;;;;;;;-1.64;88.35;95861.84;110619;1274;22202;-77
2023/12/31 03:02:05;;;;;;;53.30;29.00;;;;;;;-1.72;88.41;95861.75;110602;1274;22110;-76
2023/12/31 03:04:34;;;;;;;30.70;17.80;;;;;;;-1.76;88.52;95863.68;110536;1274;22203;-76
2023/12/31 03:07:02;;;;;;;12.80;7.00;;;;;;;-1.78;88.56;95864.31;110662;1274;22168;-76
2023/12/31 03:09:30;;;;;;;16.30;8.70;;;;;;;-1.78;89.01;95866.20;110635;1274;22128;-76
2023/12/31 03:11:58;;;;;;;17.60;10.00;;;;;;;-1.81;88.84;95868.19;110547;1274;22361;-76
2023/12/31 03:14:27;;;;;;;20.40;12.10;;;;;;;-1.81;89.25;95867.84;110620;1274;22136;-77
2023/12/31 03:16:55;;;;;;;38.20;20.50;;;;;;;-1.83;88.73;95875.00;110613;1274;22895;-76
2023/12/31 03:19:23;;;;;;;27.20;15.30;;;;;;;-1.87;88.74;95877.12;110546;1274;22866;-77
2023/12/31 03:21:51;;;;;;;27.20;15.80;;;;;;;-1.91;88.64;95881.12;110611;1268;22137;-76
2023/12/31 03:24:22;;;;;;;13.60;9.20;;;;;;;-1.92;88.85;95880.05;110512;1274;22128;-77
2023/12/31 03:26:50;;;;;;;9.80;6.20;;;;;;;-1.90;88.88;95882.53;110523;1274;22171;-77
2023/12/31 03:29:20;;;;;;;3.80;1.90;;;;;;;-1.84;89.13;95880.85;110523;1274;22300;-77
2023/12/31 03:31:48;;;;;;;3.50;1.90;;;;;;;-1.72;89.71;95878.13;110518;1274;22188;-76
2023/12/31 03:34:17;;;;;;;5.10;3.20;;;;;;;-1.61;89.91;95875.55;110558;1274;22187;-77
2023/12/31 03:36:46;;;;;;;26.40;14.30;;;;;;;-1.59;89.81;95874.42;110538;1274;22331;-76
2023/12/31 03:39:14;;;;;;;23.10;13.00;;;;;;;-1.58;89.73;95877.58;110620;1274;22792;-76
2023/12/31 03:41:43;;;;;;;40.10;19.00;;;;;;;-1.59;89.23;95878.55;110604;1274;22112;-77
2023/12/31 03:44:12;;;;;;;28.50;15.20;;;;;;;-1.60;89.34;95881.80;110608;1274;22904;-76
2023/12/31 03:46:40;;;;;;;15.00;9.10;;;;;;;-1.56;89.38;95883.67;110602;1274;22585;-77
2023/12/31 03:49:09;;;;;;;17.50;9.70;;;;;;;-1.57;89.07;95883.98;110567;1274;22166;-77
2023/12/31 03:51:37;;;;;;;13.00;7.00;;;;;;;-1.64;88.21;95883.55;110504;1274;22317;-76
2023/12/31 03:54:07;;;;;;;14.10;6.90;;;;;;;-1.63;88.89;95883.42;110531;1274;22148;-77
2023/12/31 03:56:35;;;;;;;9.80;5.00;;;;;;;-1.59;89.26;95885.12;110601;1274;22092;-77
2023/12/31 03:59:03;;;;;;;12.90;4.70;;;;;;;-1.59;88.90;95881.48;110601;1274;22141;-77
2023/12/31 04:01:31;;;;;;;34.80;16.60;;;;;;;-1.61;88.82;95883.68;110584;1274;23211;-77
2023/12/31 04:04:00;;;;;;;85.90;36.90;;;;;;;-1.65;88.45;95881.10;110550;1268;22149;-76
2023/12/31 04:06:28;;;;;;;96.40;39.70;;;;;;;-1.65;88.90;95883.02;110527;1274;22221;-76
2023/12/31 04:08:56;;;;;;;90.20;41.00;;;;;;;-1.59;89.38;95884.92;110653;1274;22115;-77
2023/12/31 04:11:24;;;;;;;79.30;35.60;;;;;;;-1.63;88.56;95883.25;110546;1274;22133;-77
2023/12/31 04:13:52;;;;;;;17.10;8.40;;;;;;;-1.73;88.33;95887.41;110527;1274;22286;-77
2023/12/31 04:16:20;;;;;;;8.50;4.30;;;;;;;-1.69;89.29;95885.29;110578;1273;22148;-77
2023/12/31 04:18:48;;;;;;;5.60;3.10;;;;;;;-1.62;89.60;95884.66;110535;1274;22189;-76
2023/12/31 04:21:17;;;;;;;8.00;4.50;;;;;;;-1.67;88.83;95883.64;110624;1275;22154;-76
2023/12/31 04:23:45;;;;;;;35.90;18.20;;;;;;;-1.72;88.33;95886.90;110530;1274;22838;-76
2023/12/31 04:26:13;;;;;;;19.30;8.90;;;;;;;-1.80;88.25;95891.14;110536;1274;22435;-76
2023/12/31 04:28:41;;;;;;;7.50;4.30;;;;;;;-1.78;88.95;95891.55;110534;1274;22129;-77
2023/12/31 04:31:10;;;;;;;5.10;2.60;;;;;;;-1.75;89.06;95890.95;110606;1274;22082;-77
2023/12/31 04:33:38;;;;;;;4.60;2.70;;;;;;;-1.77;88.82;95889.36;110556;1274;22183;-76
2023/12/31 04:36:06;;;;;;;6.00;2.40;;;;;;;-1.77;88.74;95890.91;110609;1274;22170;-76
2023/12/31 04:38:35;;;;;;;6.30;3.50;;;;;;;-1.77;88.77;95892.80;110561;1274;22597;-77
2023/12/31 04:41:04;;;;;;;18.60;9.30;;;;;;;-1.79;88.90;95891.20;110605;1274;22217;-77
2023/12/31 04:43:33;;;;;;;50.50;24.10;;;;;;;-1.89;88.52;95892.90;110572;1274;22122;-76
2023/12/31 04:46:04;;;;;;;29.80;15.40;;;;;;;-2.03;88.27;95892.96;110619;1274;22135;-77
2023/12/31 04:48:33;;;;;;;50.30;27.30;;;;;;;-2.07;88.59;95895.41;110620;1274;22249;-77
2023/12/31 04:51:01;;;;;;;26.90;14.20;;;;;;;-2.09;88.72;95891.70;110520;1274;22844;-76
2023/12/31 04:53:33;;;;;;;14.60;8.00;;;;;;;-2.13;88.75;95893.13;110629;1275;22125;-77
2023/12/31 04:56:01;;;;;;;11.30;6.90;;;;;;;-2.15;88.86;95891.52;110538;1274;22784;-77
2023/12/31 04:58:29;;;;;;;4.80;3.10;;;;;;;-2.17;89.08;95892.14;110559;1274;22161;-77
2023/12/31 05:00:57;;;;;;;34.80;16.40;;;;;;;-2.16;89.26;95891.11;110600;1274;23217;-77
2023/12/31 05:03:26;;;;;;;9.60;4.80;;;;;;;-2.16;89.39;95888.38;110546;1275;22806;-77
2023/12/31 05:05:54;;;;;;;4.80;2.80;;;;;;;-2.14;89.23;95890.15;110613;1274;22128;-76
2023/12/31 05:08:22;;;;;;;3.80;2.10;;;;;;;-2.14;89.25;95883.25;110551;1274;22122;-76
2023/12/31 05:10:51;;;;;;;17.40;9.00;;;;;;;-2.15;89.15;95879.62;110597;1274;22146;-77
2023/12/31 05:13:19;;;;;;;20.80;11.10;;;;;;;-2.20;89.03;95880.80;110613;1274;22798;-77
2023/12/31 05:15:47;;;;;;;24.20;12.60;;;;;;;-2.26;89.06;95882.66;110521;1274;22121;-77
2023/12/31 05:18:17;;;;;;;18.90;9.60;;;;;;;-2.33;88.79;95881.73;110568;1274;23058;-77
2023/12/31 05:20:45;;;;;;;12.00;6.50;;;;;;;-2.37;89.03;95884.02;110652;1274;22305;-77
2023/12/31 05:23:14;;;;;;;8.30;3.80;;;;;;;-2.36;89.28;95880.08;110546;1274;22950;-77
2023/12/31 05:25:42;;;;;;;2.70;1.90;;;;;;;-2.35;89.67;95878.02;110640;1274;22121;-77
2023/12/31 05:28:10;;;;;;;2.30;1.90;;;;;;;-2.34;89.80;95878.27;110577;1274;22145;-77
2023/12/31 05:30:41;;;;;;;3.30;1.90;;;;;;;-2.31;89.86;95881.80;110560;1274;22116;-77
2023/12/31 05:33:12;;;;;;;8.80;4.70;;;;;;;-2.31;89.79;95888.19;110611;1274;22177;-77
2023/12/31 05:35:40;;;;;;;10.40;5.50;;;;;;;-2.34;89.62;95887.74;110647;1274;22129;-76
2023/12/31 05:38:08;;;;;;;19.50;10.20;;;;;;;-2.33;89.53;95885.52;110547;1274;22964;-76
2023/12/31 05:40:37;;;;;;;11.30;7.00;;;;;;;-2.31;89.51;95888.34;110564;1274;22102;-77
2023/12/31 05:43:05;;;;;;;10.60;5.60;;;;;;;-2.32;89.53;95889.20;110551;1274;22275;-77
2023/12/31 05:45:34;;;;;;;13.20;7.30;;;;;;;-2.32;89.73;95884.52;110568;1274;22151;-77
2023/12/31 05:48:02;;;;;;;10.90;5.60;;;;;;;-2.32;89.68;95881.44;110608;1274;22161;-77
2023/12/31 05:50:31;;;;;;;10.40;6.00;;;;;;;-2.32;89.54;95881.41;110590;1274;22351;-77
2023/12/31 05:52:59;;;;;;;5.10;2.90;;;;;;;-2.28;89.85;95882.94;110564;1274;22120;-77
2023/12/31 05:55:28;;;;;;;4.20;2.20;;;;;;;-2.22;89.99;95880.77;110649;1274;22087;-77
2023/12/31 05:57:56;;;;;;;4.30;2.40;;;;;;;-2.10;90.24;95876.85;110533;1274;22242;-77
2023/12/31 06:00:24;;;;;;;3.10;2.00;;;;;;;-2.04;90.10;95873.98;110534;1274;22125;-77
2023/12/31 06:02:52;;;;;;;6.70;2.50;;;;;;;-1.95;90.35;95875.12;110609;1274;22132;-77
2023/12/31 06:05:21;;;;;;;5.10;2.70;;;;;;;-1.85;90.56;95869.95;110576;1274;22116;-77
2023/12/31 06:07:49;;;;;;;8.20;4.90;;;;;;;-1.77;90.47;95867.27;110608;1274;22879;-77
2023/12/31 06:10:18;;;;;;;8.10;4.60;;;;;;;-1.74;90.13;95868.06;110527;1274;22129;-77
2023/12/31 06:12:46;;;;;;;5.10;3.40;;;;;;;-1.68;90.28;95872.56;110548;1274;22216;-77
2023/12/31 06:15:15;;;;;;;8.20;4.10;;;;;;;-1.59;90.49;95872.86;110635;1274;22122;-77
2023/12/31 06:17:43;;;;;;;4.20;3.00;;;;;;;-1.58;89.86;95870.83;110553;1274;22145;-77
2023/12/31 06:20:11;;;;;;;11.20;6.30;;;;;;;-1.55;90.02;95871.61;110555;1274;22835;-77
2023/12/31 06:22:39;;;;;;;10.80;6.20;;;;;;;-1.59;89.07;95872.69;110534;1274;22774;-77
2023/12/31 06:25:08;;;;;;;4.90;3.60;;;;;;;-1.61;89.19;95875.55;110572;1274;22829;-77
2023/12/31 06:27:40;;;;;;;4.40;3.20;;;;;;;-1.57;89.30;95878.27;110535;1274;22771;-77
2023/12/31 06:30:09;;;;;;;6.60;3.30;;;;;;;-1.56;89.14;95878.66;110614;1274;22118;-77
2023/12/31 06:32:37;;;;;;;9.90;6.30;;;;;;;-1.46;90.09;95879.14;110572;1274;22199;-77
2023/12/31 06:35:07;;;;;;;2.80;1.80;;;;;;;-1.36;90.35;95883.08;110578;1274;22343;-77
2023/12/31 06:37:35;;;;;;;15.40;8.40;;;;;;;-1.31;89.92;95883.06;110543;1274;22315;-77
2023/12/31 06:40:04;;;;;;;106.40;49.30;;;;;;;-1.42;88.43;95887.39;110578;1274;22148;-77
2023/12/31 06:42:32;;;;;;;72.00;34.30;;;;;;;-1.45;89.00;95881.95;110538;1274;22267;-77
2023/12/31 06:45:00;;;;;;;48.20;22.30;;;;;;;-1.49;88.71;95883.54;110561;1274;22146;-77
2023/12/31 06:47:28;;;;;;;26.70;13.40;;;;;;;-1.54;88.61;95885.63;110636;1274;22138;-76
2023/12/31 06:49:56;;;;;;;15.80;9.70;;;;;;;-1.59;88.47;95884.59;110597;1274;22133;-77
2023/12/31 06:52:25;;;;;;;35.40;21.60;;;;;;;-1.55;89.28;95886.98;110585;1274;22824;-77
2023/12/31 06:54:53;;;;;;;76.00;38.90;;;;;;;-1.51;89.38;95891.92;110542;1266;22266;-76
2023/12/31 06:57:21;;;;;;;87.60;46.20;;;;;;;-1.51;89.23;95887.25;110624;1274;22114;-77
2023/12/31 06:59:49;;;;;;;121.30;64.70;;;;;;;-1.47;89.43;95886.16;110581;1274;22114;-77
2023/12/31 07:02:17;;;;;;;74.80;40.60;;;;;;;-1.43;89.53;95883.36;110543;1274;22205;-76
2023/12/31 07:04:46;;;;;;;73.80;40.60;;;;;;;-1.42;89.53;95883.91;110606;1274;22164;-77
2023/12/31 07:07:14;;;;;;;58.40;41.10;;;;;;;-1.42;89.43;95888.23;110523;1274;22180;-76
2023/12/31 07:09:42;;;;;;;58.40;36.40;;;;;;;-1.39;89.71;95884.89;110541;1274;22996;-77
2023/12/31 07:12:10;;;;;;;57.00;36.60;;;;;;;-1.34;89.76;95884.70;110550;1274;22175;-77
2023/12/31 07:14:38;;;;;;;49.90;32.50;;;;;;;-1.29;89.84;95883.98;110562;1274;22362;-76
2023/12/31 07:17:06;;;;;;;31.80;20.50;;;;;;;-1.27;90.58;95892.52;110542;1274;22885;-76
2023/12/31 07:19:35;;;;;;;30.10;17.80;;;;;;;-1.24;90.29;95890.36;110599;1274;22121;-76
2023/12/31 07:22:03;;;;;;;26.20;17.30;;;;;;;-1.22;90.01;95894.40;110574;1271;22158;-76
2023/12/31 07:24:34;;;;;;;13.70;9.60;;;;;;;-1.15;90.19;95892.39;110575;1274;22126;-77
2023/12/31 07:27:05;;;;;;;11.00;6.90;;;;;;;-1.10;90.14;95891.65;110597;1274;22151;-77
2023/12/31 07:29:33;;;;;;;16.50;10.50;;;;;;;-1.03;90.20;95890.30;110537;1274;22923;-77
2023/12/31 07:32:01;;;;;;;18.60;12.40;;;;;;;-0.93;90.23;95893.38;110541;1274;23043;-77
2023/12/31 07:34:29;;;;;;;29.60;19.90;;;;;;;-0.83;90.08;95897.48;110565;1274;22134;-77
2023/12/31 07:36:57;;;;;;;49.70;30.40;;;;;;;-0.72;90.11;95896.77;110590;1274;22220;-76
2023/12/31 07:39:26;;;;;;;12.40;8.70;;;;;;;-0.63;90.17;95895.48;110554;1274;22332;-77
2023/12/31 07:41:54;;;;;;;51.70;34.70;;;;;;;-0.51;90.28;95896.00;110551;1274;22510;-77
2023/12/31 07:44:22;;;;;;;58.80;37.70;;;;;;;-0.37;90.78;95893.65;110547;1274;22116;-77
2023/12/31 07:46:50;;;;;;;50.50;35.70;;;;;;;-0.24;90.80;95889.52;110519;1274;22116;-77
2023/12/31 07:49:19;;;;;;;40.80;24.40;;;;;;;-0.14;90.40;95892.90;110617;1274;22130;-77
2023/12/31 07:51:48;;;;;;;34.10;21.00;;;;;;;-0.02;90.57;95887.50;110543;1274;22163;-76
2023/12/31 07:54:16;;;;;;;39.40;24.40;;;;;;;0.15;91.00;95889.52;110512;1274;22981;-76
2023/12/31 07:56:44;;;;;;;29.20;18.50;;;;;;;0.32;90.81;95884.23;110519;1274;22710;-76
2023/12/31 07:59:12;;;;;;;19.20;13.20;;;;;;;0.45;90.28;95886.45;110633;1274;22135;-76
2023/12/31 08:01:41;;;;;;;19.40;13.00;;;;;;;0.52;90.06;95887.84;110544;1274;22940;-76
2023/12/31 08:04:09;;;;;;;27.00;13.90;;;;;;;0.67;90.47;95884.92;110620;1274;22097;-76
2023/12/31 08:06:37;;;;;;;24.70;16.00;;;;;;;0.71;89.55;95884.15;110542;1274;22153;-76
2023/12/31 08:09:06;;;;;;;24.60;15.00;;;;;;;0.76;89.61;95886.54;110514;1274;22117;-76
2023/12/31 08:11:34;;;;;;;39.30;19.80;;;;;;;0.90;90.05;95883.21;110578;1274;22868;-76
2023/12/31 08:14:02;;;;;;;30.70;19.30;;;;;;;1.03;90.07;95887.52;110522;1274;22269;-76
2023/12/31 08:16:31;;;;;;;29.50;18.40;;;;;;;1.20;90.41;95893.42;110526;1274;22574;-76
2023/12/31 08:18:59;;;;;;;27.00;17.00;;;;;;;1.27;89.60;95887.52;110627;1274;22877;-76
2023/12/31 08:21:27;;;;;;;26.50;16.60;;;;;;;1.28;88.96;95886.33;110548;1274;22124;-76
2023/12/31 08:23:55;;;;;;;26.80;18.50;;;;;;;1.32;88.88;95890.05;110515;1274;22144;-76
2023/12/31 08:26:25;;;;;;;25.10;16.70;;;;;;;1.34;88.85;95887.31;110556;1274;22170;-76
2023/12/31 08:28:53;;;;;;;18.30;12.10;;;;;;;1.23;87.52;95894.55;110627;1274;22390;-75
2023/12/31 08:31:21;;;;;;;25.10;16.60;;;;;;;1.13;87.53;95894.14;110602;1274;22145;-75
2023/12/31 08:33:49;;;;;;;18.80;11.90;;;;;;;1.13;88.13;95895.35;110562;1274;22126;-76
2023/12/31 08:36:18;;;;;;;23.60;16.40;;;;;;;1.05;87.68;95900.20;110537;1274;22269;-75
2023/12/31 08:38:46;;;;;;;18.00;11.50;;;;;;;1.12;88.68;95898.95;110522;1274;22295;-75
2023/12/31 08:41:14;;;;;;;25.80;15.40;;;;;;;1.07;88.28;95901.62;110531;1274;22914;-75
2023/12/31 08:43:43;;;;;;;18.80;12.50;;;;;;;1.10;88.70;95898.91;110607;1275;22111;-75
2023/12/31 08:46:12;;;;;;;22.40;15.10;;;;;;;1.09;88.32;95897.17;110527;1274;22122;-75
2023/12/31 08:48:41;;;;;;;20.50;13.40;;;;;;;1.13;88.80;95898.13;110549;1274;22119;-75
2023/12/31 08:51:10;;;;;;;23.30;15.60;;;;;;;1.12;88.55;95896.36;110560;1274;22886;-75
2023/12/31 08:53:38;;;;;;;25.20;15.90;;;;;;;1.15;88.82;95890.01;110541;1274;22128;-75
2023/12/31 08:56:06;;;;;;;25.00;15.70;;;;;;;1.20;89.11;95890.83;110517;1274;22829;-75
2023/12/31 08:58:34;;;;;;;27.50;16.90;;;;;;;1.31;89.08;95881.02;110539;1274;22647;-75
2023/12/31 09:01:03;;;;;;;22.50;14.80;;;;;;;1.41;89.04;95880.71;110531;1274;22312;-75
2023/12/31 09:03:31;;;;;;;22.80;14.10;;;;;;;1.48;88.83;95877.04;110469;1274;22120;-75
2023/12/31 09:06:00;;;;;;;26.50;17.80;;;;;;;1.55;89.02;95877.17;110532;1274;22799;-75
2023/12/31 09:08:28;;;;;;;23.20;15.80;;;;;;;1.66;89.19;95868.92;110608;1274;22169;-75
2023/12/31 09:10:56;;;;;;;26.90;16.90;;;;;;;1.78;89.30;95864.98;110553;1274;22124;-75
2023/12/31 09:13:26;;;;;;;24.80;16.30;;;;;;;1.94;89.41;95868.08;110491;1274;22338;-75
2023/12/31 09:15:55;;;;;;;33.80;21.20;;;;;;;2.14;89.81;95863.75;110549;1271;22405;-75
2023/12/31 09:18:23;;;;;;;21.70;12.90;;;;;;;2.32;89.78;95852.80;110516;1274;22283;-75
2023/12/31 09:20:52;;;;;;;30.90;19.20;;;;;;;2.58;89.72;95852.36;110522;1274;22369;-75
2023/12/31 09:23:20;;;;;;;33.30;20.90;;;;;;;2.78;89.49;95846.08;110576;1265;22129;-75
2023/12/31 09:25:48;;;;;;;35.90;19.70;;;;;;;2.92;89.30;95843.86;110533;1274;22279;-75
2023/12/31 09:28:17;;;;;;;34.40;20.10;;;;;;;3.00;88.07;95839.98;110513;1274;22593;-75
2023/12/31 09:30:45;;;;;;;26.40;15.90;;;;;;;3.08;88.33;95836.44;110505;1274;22127;-75
2023/12/31 09:33:13;;;;;;;25.20;15.40;;;;;;;3.32;89.35;95827.20;110504;1274;22341;-75
2023/12/31 09:35:42;;;;;;;17.70;11.90;;;;;;;3.41;87.32;95825.40;110566;1274;23013;-75
2023/12/31 09:38:10;;;;;;;15.30;9.40;;;;;;;3.23;86.29;95829.01;110620;1274;22130;-75
2023/12/31 09:40:38;;;;;;;15.70;9.70;;;;;;;3.09;86.40;95832.46;110540;1274;22142;-75
2023/12/31 09:43:09;;;;;;;16.70;9.90;;;;;;;3.15;87.31;95830.28;110586;1274;22130;-75
2023/12/31 09:45:39;;;;;;;14.60;9.30;;;;;;;3.20;87.08;95831.23;110641;1274;22201;-75
2023/12/31 09:48:08;;;;;;;11.60;7.60;;;;;;;3.33;87.79;95823.58;110604;1274;22904;-75
2023/12/31 09:50:36;;;;;;;12.00;8.00;;;;;;;3.61;87.87;95818.36;110536;1274;22132;-75
2023/12/31 09:53:06;;;;;;;11.40;7.00;;;;;;;3.94;87.39;95809.49;110583;1271;22206;-75
2023/12/31 09:55:36;;;;;;;11.20;7.70;;;;;;;4.36;86.20;95808.86;110579;1274;22177;-75
2023/12/31 09:58:06;;;;;;;10.00;5.80;;;;;;;4.89;86.21;95800.73;110543;1274;22320;-75
2023/12/31 10:00:34;;;;;;;8.20;6.00;;;;;;;5.53;86.37;95789.73;110860;1267;22135;-75
2023/12/31 10:03:04;;;;;;;9.80;6.10;;;;;;;6.01;83.37;95788.52;110512;1274;22210;-76
2023/12/31 10:05:38;;;;;;;8.60;5.20;;;;;;;6.48;82.05;95782.98;110474;1274;22817;-76
2023/12/31 10:08:08;;;;;;;;;;;;;;;6.94;82.16;95778.06;110514;1274;22509;-76
2023/12/31 10:10:38;;;;;;;5.40;3.90;;;;;;;7.43;81.06;95772.68;110473;1274;22586;-76
2023/12/31 10:13:14;;;;;;;7.40;4.90;;;;;;;8.03;79.57;95769.43;110497;1274;22835;-76
2023/12/31 10:15:43;;;;;;;8.00;5.20;;;;;;;8.42;77.86;95768.84;110483;1274;22141;-76
2023/12/31 10:18:11;;;;;;;8.20;5.30;;;;;;;8.86;77.70;95762.00;110481;1274;22209;-76
2023/12/31 10:20:39;;;;;;;7.80;5.20;;;;;;;9.27;76.27;95757.55;110520;1274;22176;-76
2023/12/31 10:23:08;;;;;;;6.60;4.50;;;;;;;9.64;75.32;95752.73;110501;1274;22351;-76
2023/12/31 10:25:36;;;;;;;7.40;4.60;;;;;;;10.02;74.86;95746.78;110498;1274;22848;-76
2023/12/31 10:28:04;;;;;;;6.60;4.80;;;;;;;10.38;74.49;95739.60;110484;1271;22955;-76
2023/12/31 10:30:33;;;;;;;5.50;3.70;;;;;;;10.79;73.67;95735.61;110511;1274;22131;-76
2023/12/31 10:33:13;;;;;;;5.10;3.90;;;;;;;11.21;69.89;95731.67;110512;1274;22178;-76
2023/12/31 10:35:43;;;;;;;8.90;5.00;;;;;;;11.65;70.56;95731.86;110519;1274;22154;-76
2023/12/31 10:38:11;;;;;;;5.50;4.20;;;;;;;11.98;67.90;95725.02;110501;1274;22400;-75
2023/12/31 10:40:41;;;;;;;5.00;4.10;;;;;;;12.30;66.22;95723.41;110614;1274;22121;-76
2023/12/31 10:43:12;;;;;;;6.80;5.20;;;;;;;12.48;65.64;95712.23;110509;1274;22119;-76
2023/12/31 10:45:40;;;;;;;6.10;4.30;;;;;;;12.62;62.16;95707.13;110608;1274;22179;-76
2023/12/31 10:48:12;;;;;;;7.90;5.30;;;;;;;12.76;58.99;95698.15;110468;1274;22264;-76
2023/12/31 10:50:46;;;;;;;6.30;5.30;;;;;;;12.84;57.47;95695.46;110595;1275;22227;-76
2023/12/31 10:53:16;;;;;;;5.10;4.50;;;;;;;13.04;59.18;95695.11;110586;1274;22238;-76
2023/12/31 10:55:47;;;;;;;6.40;5.50;;;;;;;13.37;59.86;95691.25;110605;1275;22094;-76
2023/12/31 10:58:16;;;;;;;5.50;4.10;;;;;;;13.76;61.07;95687.11;110633;1275;22119;-76
2023/12/31 11:00:45;;;;;;;4.10;3.30;;;;;;;14.16;58.27;95681.84;110516;1274;22747;-76
2023/12/31 11:03:14;;;;;;;4.70;3.70;;;;;;;14.49;56.66;95673.55;110608;1274;22192;-76
2023/12/31 11:05:44;;;;;;;5.70;4.20;;;;;;;14.76;57.62;95668.95;110465;1274;22187;-76
2023/12/31 11:08:14;;;;;;;5.80;4.60;;;;;;;15.12;57.21;95663.81;110527;1274;22127;-76
2023/12/31 11:10:42;;;;;;;4.50;3.80;;;;;;;15.38;55.53;95660.07;110459;1274;22893;-76
2023/12/31 11:13:15;;;;;;;14.30;9.00;;;;;;;15.38;49.67;95658.27;110557;1274;22248;-76
2023/12/31 11:15:46;;;;;;;10.00;8.10;;;;;;;15.45;50.97;95656.98;110523;1275;22217;-76
2023/12/31 11:18:48;;;;;;;5.30;4.70;;;;;;;15.34;48.90;95654.72;110481;1274;22185;-76
2023/12/31 11:21:27;;;;;;;4.10;3.60;;;;;;;15.69;50.25;95644.05;110590;1274;22341;-76
2023/12/31 11:24:15;;;;;;;11.10;7.40;;;;;;;16.00;49.21;95637.73;110620;1275;22776;-76